Time;durP1;ratioP1;P1;durP2;ratioP2;P2;SDS_P1;SDS_P2;PMS_P1;PMS_P2;Temp;Humidity;BMP_temperature;BMP_pressure;BME280_temperature;BME280_humidity;BME280_pressure;Samples;Min_cycle;Max_cycle;Signal;HPM_P1;HPM_P2
2021/06/10 00:01:53;;;;;;;28.57;25.57;;;15.10;99.90;;;;;;5072819;28;20585;-66
2021/06/10 00:04:20;;;;;;;25.23;22.70;;;15.10;99.90;;;;;;5072254;28;20465;-66
2021/06/10 00:06:46;;;;;;;26.90;23.60;;;15.00;99.90;;;;;;5072605;28;20496;-66
2021/06/10 00:09:13;;;;;;;30.70;24.30;;;15.00;99.90;;;;;;5071882;28;20488;-67
2021/06/10 00:11:40;;;;;;;27.07;24.17;;;14.90;99.90;;;;;;5072175;28;20938;-66
2021/06/10 00:14:07;;;;;;;28.60;23.70;;;14.90;99.90;;;;;;5071996;28;20436;-66
2021/06/10 00:16:33;;;;;;;25.87;22.90;;;14.90;99.90;;;;;;5072258;28;20495;-67
2021/06/10 00:19:00;;;;;;;25.20;22.77;;;14.80;99.90;;;;;;5072230;28;20508;-67
2021/06/10 00:21:26;;;;;;;29.23;26.20;;;14.80;99.90;;;;;;5072222;28;20447;-66
2021/06/10 00:23:52;;;;;;;31.40;26.10;;;14.80;99.90;;;;;;5071886;28;21093;-68
2021/06/10 00:26:19;;;;;;;31.17;25.43;;;14.90;99.90;;;;;;5071964;28;20946;-66
2021/06/10 00:28:46;;;;;;;29.97;24.60;;;14.90;99.90;;;;;;5071978;28;20467;-66
2021/06/10 00:31:13;;;;;;;36.83;26.73;;;14.90;99.90;;;;;;5071887;28;20529;-68
2021/06/10 00:33:39;;;;;;;37.87;28.87;;;14.90;99.90;;;;;;5072380;28;20465;-65
2021/06/10 00:36:05;;;;;;;33.03;26.70;;;14.90;99.90;;;;;;5071896;28;21036;-66
2021/06/10 00:38:32;;;;;;;29.33;26.03;;;14.90;99.90;;;;;;5072415;28;20525;-67
2021/06/10 00:40:58;;;;;;;30.37;25.57;;;14.90;99.90;;;;;;5072960;28;20447;-69
2021/06/10 00:43:25;;;;;;;29.23;26.00;;;14.80;99.90;;;;;;5071777;28;20457;-67
2021/06/10 00:45:53;;;;;;;32.73;27.67;;;14.80;99.90;;;;;;5071689;28;20447;-67
2021/06/10 00:48:19;;;;;;;34.20;29.83;;;14.80;99.90;;;;;;5071861;28;20960;-66
2021/06/10 00:50:47;;;;;;;30.97;26.27;;;14.90;99.90;;;;;;5071231;28;20518;-67
2021/06/10 00:53:21;;;;;;;29.03;24.90;;;14.90;99.90;;;;;;5071600;28;20447;-66
2021/06/10 00:55:48;;;;;;;29.77;25.77;;;14.80;99.90;;;;;;5071504;28;20851;-66
2021/06/10 00:58:15;;;;;;;30.30;26.87;;;14.80;99.90;;;;;;5071292;28;20588;-67
2021/06/10 01:00:41;;;;;;;27.27;24.37;;;14.90;99.90;;;;;;5071127;28;20525;-66
2021/06/10 01:03:09;;;;;;;30.30;26.47;;;14.90;99.90;;;;;;5071781;28;20455;-67
2021/06/10 01:05:37;;;;;;;29.10;24.90;;;14.90;99.90;;;;;;5071692;28;20526;-67
2021/06/10 01:08:09;;;;;;;27.67;23.40;;;14.80;99.90;;;;;;5071521;28;20443;-68
2021/06/10 01:10:46;;;;;;;29.17;25.27;;;14.80;99.90;;;;;;5071260;28;20501;-66
2021/06/10 01:13:25;;;;;;;28.00;25.03;;;14.80;99.90;;;;;;5071725;28;20478;-67
2021/06/10 01:15:56;;;;;;;27.90;24.80;;;14.80;99.90;;;;;;5071477;28;20474;-66
2021/06/10 01:18:26;;;;;;;29.13;25.20;;;14.70;99.90;;;;;;5071033;28;20511;-67
2021/06/10 01:20:55;;;;;;;30.10;24.60;;;14.60;99.90;;;;;;5070805;28;20447;-66
2021/06/10 01:23:29;;;;;;;28.80;25.20;;;14.50;99.90;;;;;;5070965;28;20538;-67
2021/06/10 01:26:08;;;;;;;24.73;22.17;;;14.50;99.90;;;;;;5070908;28;20443;-67
2021/06/10 01:28:37;;;;;;;30.00;23.53;;;14.50;99.90;;;;;;5070964;28;20535;-67
2021/06/10 01:31:07;;;;;;;27.33;24.03;;;14.40;99.90;;;;;;5070415;28;20967;-67
2021/06/10 01:33:37;;;;;;;28.67;24.50;;;14.40;99.90;;;;;;5070846;28;20455;-68
2021/06/10 01:36:07;;;;;;;30.27;26.50;;;14.40;99.90;;;;;;5070713;28;20578;-67
2021/06/10 01:38:34;;;;;;;29.40;26.23;;;14.40;99.90;;;;;;5070804;28;20538;-67
2021/06/10 01:41:02;;;;;;;32.93;27.47;;;14.50;99.90;;;;;;5070432;28;20534;-66
2021/06/10 01:43:33;;;;;;;32.30;25.90;;;14.40;99.90;;;;;;5070507;28;20447;-68
2021/06/10 01:46:02;;;;;;;30.07;26.80;;;14.40;99.90;;;;;;5070978;28;20542;-66
2021/06/10 01:48:30;;;;;;;31.97;25.47;;;14.40;99.90;;;;;;5070823;28;20455;-67
2021/06/10 01:50:59;;;;;;;29.43;25.67;;;14.30;99.90;;;;;;5070253;28;20513;-67
2021/06/10 01:53:26;;;;;;;29.43;24.37;;;14.30;99.90;;;;;;5070429;28;20439;-67
2021/06/10 01:55:54;;;;;;;28.70;24.50;;;14.30;99.90;;;;;;5070629;28;20514;-67
2021/06/10 01:58:21;;;;;;;27.83;24.50;;;14.20;99.90;;;;;;5070283;28;20447;-67
2021/06/10 02:00:50;;;;;;;30.80;23.80;;;14.20;99.90;;;;;;5070129;28;20445;-67
2021/06/10 02:03:19;;;;;;;28.67;24.40;;;14.20;99.90;;;;;;5070345;28;20529;-67
2021/06/10 02:05:46;;;;;;;27.37;23.70;;;14.20;99.90;;;;;;5070341;28;20453;-67
2021/06/10 02:08:15;;;;;;;27.43;24.47;;;14.20;99.90;;;;;;5070462;28;20477;-66
2021/06/10 02:10:43;;;;;;;25.63;22.80;;;14.10;99.90;;;;;;5069599;28;20443;-67
2021/06/10 02:13:10;;;;;;;31.97;26.00;;;14.10;99.90;;;;;;5070468;28;20443;-67
2021/06/10 02:15:37;;;;;;;38.10;26.80;;;14.10;99.90;;;;;;5070355;28;20572;-67
2021/06/10 02:18:04;;;;;;;33.50;26.27;;;14.10;99.90;;;;;;5070315;28;20533;-67
2021/06/10 02:20:32;;;;;;;29.60;24.70;;;14.10;99.90;;;;;;5070052;28;20512;-66
2021/06/10 02:22:59;;;;;;;29.03;24.13;;;14.00;99.90;;;;;;5070269;28;20558;-67
2021/06/10 02:25:25;;;;;;;31.63;25.30;;;14.10;99.90;;;;;;5069882;28;20819;-66
2021/06/10 02:27:51;;;;;;;29.00;24.60;;;14.10;99.90;;;;;;5070388;28;20443;-67
2021/06/10 02:30:19;;;;;;;29.40;24.87;;;14.00;99.90;;;;;;5069618;28;21093;-66
2021/06/10 02:32:45;;;;;;;26.57;22.50;;;14.00;99.90;;;;;;5070522;28;20443;-66
2021/06/10 02:35:13;;;;;;;32.37;26.67;;;13.90;99.90;;;;;;5071602;28;20554;-66
2021/06/10 02:37:44;;;;;;;29.83;25.43;;;14.00;99.90;;;;;;5070313;28;20443;-67
2021/06/10 02:40:13;;;;;;;29.33;24.47;;;13.90;99.90;;;;;;5069870;28;20546;-66
2021/06/10 02:42:40;;;;;;;27.17;23.47;;;13.80;99.90;;;;;;5069996;28;20480;-66
2021/06/10 02:45:08;;;;;;;34.23;24.80;;;13.90;99.90;;;;;;5069800;28;20961;-67
2021/06/10 02:47:36;;;;;;;28.20;23.57;;;13.90;99.90;;;;;;5069879;28;20884;-66
2021/06/10 02:50:06;;;;;;;24.83;22.10;;;13.90;99.90;;;;;;5069805;28;20471;-66
2021/06/10 02:52:34;;;;;;;24.73;21.77;;;13.80;99.90;;;;;;5069535;28;20457;-66
2021/06/10 02:55:03;;;;;;;28.07;23.00;;;13.90;99.90;;;;;;5069976;28;20877;-66
2021/06/10 02:57:30;;;;;;;30.10;23.53;;;13.80;99.90;;;;;;5070119;28;20482;-67
2021/06/10 02:59:56;;;;;;;33.63;23.30;;;13.80;99.90;;;;;;5069475;28;20554;-66
2021/06/10 03:02:24;;;;;;;36.70;24.30;;;13.70;99.90;;;;;;5069848;28;20550;-66
2021/06/10 03:04:51;;;;;;;32.47;25.23;;;13.70;99.90;;;;;;5071330;28;20484;-66
2021/06/10 03:07:20;;;;;;;38.10;25.97;;;13.80;99.90;;;;;;5073961;28;20470;-66
2021/06/10 03:09:47;;;;;;;33.47;24.90;;;13.70;99.90;;;;;;5073543;28;20465;-65
2021/06/10 03:12:18;;;;;;;32.47;25.67;;;13.80;99.90;;;;;;5075349;28;20453;-66
2021/06/10 03:14:45;;;;;;;36.30;26.37;;;13.70;99.90;;;;;;5073800;28;20591;-66
2021/06/10 03:17:13;;;;;;;34.47;25.47;;;13.70;99.90;;;;;;5073314;28;20901;-66
2021/06/10 03:19:40;;;;;;;33.87;23.90;;;13.70;99.90;;;;;;5072844;28;20469;-66
2021/06/10 03:22:07;;;;;;;34.17;25.60;;;13.60;99.90;;;;;;5073586;28;20469;-65
2021/06/10 03:24:34;;;;;;;32.97;23.70;;;13.60;99.90;;;;;;5073428;28;21067;-66
2021/06/10 03:27:01;;;;;;;29.10;23.53;;;13.60;99.90;;;;;;5073339;28;20449;-65
2021/06/10 03:29:29;;;;;;;27.30;23.60;;;13.70;99.90;;;;;;5072741;28;20466;-65
2021/06/10 03:31:56;;;;;;;27.23;23.30;;;13.70;99.90;;;;;;5072911;28;20855;-65
2021/06/10 03:34:23;;;;;;;26.10;22.07;;;13.60;99.90;;;;;;5073055;28;20457;-66
2021/06/10 03:36:49;;;;;;;27.30;22.50;;;13.60;99.90;;;;;;5072933;28;20483;-66
2021/06/10 03:39:19;;;;;;;28.57;23.33;;;13.60;99.90;;;;;;5072413;28;20481;-65
2021/06/10 03:41:46;;;;;;;26.83;20.57;;;13.60;99.90;;;;;;5072758;28;20451;-65
2021/06/10 03:44:14;;;;;;;26.20;22.10;;;13.60;99.90;;;;;;5072758;28;20539;-67
2021/06/10 03:46:42;;;;;;;28.33;23.20;;;13.60;99.90;;;;;;5072539;28;21003;-66
2021/06/10 03:49:10;;;;;;;28.90;23.23;;;13.60;99.90;;;;;;5072324;28;20474;-66
2021/06/10 03:51:37;;;;;;;25.20;22.50;;;13.60;99.90;;;;;;5072383;28;20459;-66
2021/06/10 03:54:06;;;;;;;29.23;23.80;;;13.70;99.90;;;;;;5072595;28;20443;-65
2021/06/10 03:56:32;;;;;;;27.83;23.97;;;13.80;99.90;;;;;;5072523;28;20471;-66
2021/06/10 03:58:59;;;;;;;27.30;23.70;;;13.80;99.90;;;;;;5072012;28;21042;-66
2021/06/10 04:01:26;;;;;;;29.30;23.93;;;13.80;99.90;;;;;;5071889;28;20522;-66
2021/06/10 04:03:53;;;;;;;24.70;22.10;;;13.80;99.90;;;;;;5072378;28;20546;-66
2021/06/10 04:06:27;;;;;;;27.50;22.17;;;13.80;99.90;;;;;;5072147;28;20451;-66
2021/06/10 04:08:53;;;;;;;29.43;23.37;;;13.80;99.90;;;;;;5071941;28;20470;-66
2021/06/10 04:11:19;;;;;;;30.23;24.17;;;13.90;99.90;;;;;;5071816;28;20469;-66
2021/06/10 04:13:46;;;;;;;27.80;23.33;;;13.90;99.90;;;;;;5071990;28;20533;-66
2021/06/10 04:16:13;;;;;;;32.50;25.53;;;14.00;99.90;;;;;;5071441;28;20483;-66
2021/06/10 04:18:39;;;;;;;29.40;25.03;;;14.00;99.90;;;;;;5071979;28;20467;-66
2021/06/10 04:21:07;;;;;;;28.80;24.60;;;14.00;99.90;;;;;;5071517;28;20968;-67
2021/06/10 04:23:33;;;;;;;33.03;23.63;;;14.10;99.90;;;;;;5072499;28;20450;-66
2021/06/10 04:25:59;;;;;;;26.10;23.13;;;14.10;99.90;;;;;;5090664;28;21265;-66
2021/06/10 04:28:26;;;;;;;27.97;22.80;;;14.20;99.90;;;;;;5093304;28;20538;-66
2021/06/10 04:30:52;;;;;;;26.13;23.20;;;14.20;99.90;;;;;;5092520;28;20446;-66
2021/06/10 04:33:19;;;;;;;29.90;22.70;;;14.20;99.90;;;;;;5091890;28;20833;-66
2021/06/10 04:35:45;;;;;;;25.60;21.70;;;14.30;99.90;;;;;;5091843;28;20485;-65
2021/06/10 04:38:14;;;;;;;26.43;21.73;;;14.40;99.90;;;;;;5091763;28;20442;-65
2021/06/10 04:40:41;;;;;;;25.27;22.47;;;14.50;99.90;;;;;;5091308;28;20976;-66
2021/06/10 04:43:07;;;;;;;24.63;21.93;;;14.50;99.90;;;;;;5091725;28;20446;-66
2021/06/10 04:45:34;;;;;;;22.90;20.50;;;14.60;99.90;;;;;;5091907;28;21435;-66
2021/06/10 04:48:00;;;;;;;23.37;20.67;;;14.60;99.90;;;;;;5091887;28;20450;-66
2021/06/10 04:50:28;;;;;;;24.67;22.10;;;14.70;99.90;;;;;;5091296;28;20549;-66
2021/06/10 04:52:55;;;;;;;25.30;22.67;;;14.80;99.90;;;;;;5091671;28;20488;-67
2021/06/10 04:55:23;;;;;;;25.17;22.27;;;14.80;99.90;;;;;;5091744;28;20469;-66
2021/06/10 04:57:50;;;;;;;26.03;23.33;;;14.90;99.90;;;;;;5087215;28;20561;-65
2021/06/10 05:00:17;;;;;;;27.40;23.53;;;15.00;99.90;;;;;;5084807;28;20533;-65
2021/06/10 05:02:44;;;;;;;24.70;22.10;;;15.00;99.90;;;;;;5089879;28;20477;-66
2021/06/10 05:05:11;;;;;;;24.60;21.93;;;15.10;99.90;;;;;;5088886;28;20875;-66
2021/06/10 05:07:37;;;;;;;26.57;23.80;;;15.20;99.90;;;;;;5091406;28;20449;-68
2021/06/10 05:10:04;;;;;;;28.37;25.30;;;15.30;99.90;;;;;;5082437;28;20668;-66
2021/06/10 05:12:32;;;;;;;25.30;22.80;;;15.40;99.90;;;;;;5061017;28;20622;-67
2021/06/10 05:14:58;;;;;;;26.00;23.30;;;15.50;99.90;;;;;;5064164;28;20447;-67
2021/06/10 05:17:25;;;;;;;27.50;24.50;;;15.50;99.90;;;;;;5067994;28;20566;-66
2021/06/10 05:19:51;;;;;;;25.47;22.97;;;15.60;99.90;;;;;;5068472;28;20975;-68
2021/06/10 05:22:18;;;;;;;26.40;23.70;;;15.70;99.90;;;;;;5070427;28;20443;-72
2021/06/10 05:24:44;;;;;;;25.07;22.47;;;15.80;99.90;;;;;;5070448;28;20439;-67
2021/06/10 05:27:11;;;;;;;28.27;25.47;;;15.80;99.90;;;;;;5069611;28;20443;-67
2021/06/10 05:29:39;;;;;;;25.67;23.20;;;15.90;99.90;;;;;;5070027;28;20542;-68
2021/06/10 05:32:06;;;;;;;27.00;24.20;;;16.00;99.90;;;;;;5070134;28;20435;-66
2021/06/10 05:34:33;;;;;;;25.97;23.43;;;16.00;99.90;;;;;;5069419;28;20539;-66
2021/06/10 05:36:59;;;;;;;27.83;25.00;;;16.10;99.90;;;;;;5069454;28;20482;-65
2021/06/10 05:39:26;;;;;;;25.43;22.90;;;16.20;99.90;;;;;;5069627;28;20499;-65
2021/06/10 05:41:53;;;;;;;30.80;25.00;;;16.20;99.90;;;;;;5070099;28;20926;-66
2021/06/10 05:44:20;;;;;;;25.00;22.63;;;16.30;99.90;;;;;;5070128;28;20443;-66
2021/06/10 05:46:49;;;;;;;23.90;21.40;;;16.40;99.90;;;;;;5070158;28;20544;-66
2021/06/10 05:49:15;;;;;;;24.23;21.90;;;16.50;99.90;;;;;;5069750;28;20495;-65
2021/06/10 05:51:42;;;;;;;23.77;21.33;;;16.50;99.90;;;;;;5069923;28;20461;-66
2021/06/10 05:54:08;;;;;;;23.93;21.53;;;16.60;99.90;;;;;;5069752;28;20435;-66
2021/06/10 05:56:35;;;;;;;22.20;20.00;;;16.60;99.90;;;;;;5069866;28;20483;-66
2021/06/10 05:59:01;;;;;;;22.50;20.40;;;16.70;99.90;;;;;;5069636;28;20570;-66
2021/06/10 06:01:27;;;;;;;22.07;19.87;;;16.70;99.90;;;;;;5069894;28;20517;-66
2021/06/10 06:03:55;;;;;;;23.17;20.50;;;16.80;99.90;;;;;;5069676;28;20925;-66
2021/06/10 06:06:22;;;;;;;22.73;20.53;;;16.70;99.90;;;;;;5069716;28;20535;-66
2021/06/10 06:08:49;;;;;;;22.57;20.43;;;16.90;99.90;;;;;;5069586;28;20832;-66
2021/06/10 06:11:16;;;;;;;21.10;19.10;;;16.90;99.90;;;;;;5069880;28;20451;-66
2021/06/10 06:13:46;;;;;;;22.60;20.10;;;17.00;99.90;;;;;;5069659;28;20476;-66
2021/06/10 06:16:15;;;;;;;21.53;19.53;;;17.10;99.90;;;;;;5069777;28;20482;-66
2021/06/10 06:18:42;;;;;;;22.07;19.87;;;17.20;99.90;;;;;;5069274;28;20837;-66
2021/06/10 06:21:10;;;;;;;21.67;19.23;;;17.20;99.90;;;;;;5068805;28;20522;-65
2021/06/10 06:23:37;;;;;;;19.33;17.63;;;17.30;99.90;;;;;;5069523;28;20529;-66
2021/06/10 06:26:03;;;;;;;21.63;18.93;;;17.30;99.90;;;;;;5066895;28;20439;-66
2021/06/10 06:28:30;;;;;;;19.30;17.57;;;17.50;99.90;;;;;;5069038;28;20438;-65
2021/06/10 06:30:56;;;;;;;20.87;18.97;;;17.60;99.90;;;;;;5068753;28;20514;-65
2021/06/10 06:33:23;;;;;;;20.23;18.20;;;17.70;99.90;;;;;;5069264;28;20933;-65
2021/06/10 06:35:49;;;;;;;19.30;17.40;;;17.70;99.90;;;;;;5069475;28;20510;-65
2021/06/10 06:38:17;;;;;;;20.20;18.30;;;17.80;99.90;;;;;;5065946;28;20459;-66
2021/06/10 06:40:43;;;;;;;20.17;18.23;;;17.90;99.90;;;;;;5064598;28;20446;-66
2021/06/10 06:43:11;;;;;;;20.80;18.80;;;18.10;99.90;;;;;;5066164;28;20471;-66
2021/06/10 06:45:38;;;;;;;19.10;17.30;;;18.20;99.90;;;;;;5072326;28;20450;-66
2021/06/10 06:48:05;;;;;;;19.73;17.93;;;18.20;99.90;;;;;;5073058;28;20454;-66
2021/06/10 06:50:32;;;;;;;19.97;17.93;;;18.30;99.90;;;;;;5072056;28;20545;-66
2021/06/10 06:52:58;;;;;;;19.67;17.57;;;18.40;99.90;;;;;;5071016;28;20443;-65
2021/06/10 06:55:26;;;;;;;18.20;16.50;;;18.40;99.90;;;;;;5073403;28;20514;-66
2021/06/10 06:57:52;;;;;;;17.53;15.83;;;18.60;99.90;;;;;;5073169;28;20526;-66
2021/06/10 07:00:21;;;;;;;17.87;16.10;;;18.70;99.90;;;;;;5072898;28;20498;-66
2021/06/10 07:02:47;;;;;;;18.93;16.20;;;18.90;99.90;;;;;;5072984;28;20543;-66
2021/06/10 07:05:14;;;;;;;17.93;16.13;;;19.00;99.90;;;;;;5072664;28;20481;-66
2021/06/10 07:07:40;;;;;;;17.87;15.97;;;19.20;99.90;;;;;;5073025;28;20625;-66
2021/06/10 07:10:07;;;;;;;16.80;15.37;;;19.40;99.90;;;;;;5072607;28;20478;-66
2021/06/10 07:12:35;;;;;;;18.33;16.57;;;19.70;99.90;;;;;;5073120;28;20458;-66
2021/06/10 07:15:01;;;;;;;17.17;15.37;;;19.90;99.90;;;;;;5072704;28;20439;-66
2021/06/10 07:17:30;;;;;;;16.00;14.30;;;20.20;99.90;;;;;;5072732;28;20881;-67
2021/06/10 07:19:56;;;;;;;16.23;14.70;;;20.40;99.90;;;;;;5072606;28;20478;-66
2021/06/10 07:22:30;;;;;;;15.50;14.10;;;20.60;99.90;;;;;;5072920;28;20471;-67
2021/06/10 07:24:57;;;;;;;15.03;13.73;;;20.80;99.90;;;;;;5072936;28;20455;-66
2021/06/10 07:27:23;;;;;;;15.57;13.97;;;21.10;99.90;;;;;;5072634;28;20477;-67
2021/06/10 07:29:53;;;;;;;14.77;13.50;;;21.30;99.90;;;;;;5072002;28;20455;-66
2021/06/10 07:32:20;;;;;;;14.00;12.70;;;21.40;99.90;;;;;;5072782;28;20478;-67
2021/06/10 07:34:46;;;;;;;15.93;14.40;;;21.60;99.90;;;;;;5072248;28;20800;-67
2021/06/10 07:37:13;;;;;;;14.03;12.50;;;21.70;99.90;;;;;;5072451;28;20459;-67
2021/06/10 07:39:39;;;;;;;14.40;13.03;;;22.00;99.90;;;;;;5071893;28;20459;-66
2021/06/10 07:42:07;;;;;;;14.27;12.90;;;22.30;99.90;;;;;;5072328;28;20927;-66
2021/06/10 07:44:33;;;;;;;14.43;13.13;;;22.60;99.90;;;;;;5072331;28;21005;-66
2021/06/10 07:47:02;;;;;;;14.73;13.43;;;22.80;99.90;;;;;;5072545;28;20439;-66
2021/06/10 07:49:28;;;;;;;15.87;14.47;;;23.00;99.90;;;;;;5072071;28;20506;-66
2021/06/10 07:51:55;;;;;;;16.60;15.00;;;23.20;99.90;;;;;;5071818;28;20566;-68
2021/06/10 07:54:21;;;;;;;16.67;15.03;;;23.40;99.90;;;;;;5072314;28;20848;-65
2021/06/10 07:56:48;;;;;;;16.00;14.60;;;23.30;99.90;;;;;;5072320;28;20467;-65
2021/06/10 07:59:16;;;;;;;14.57;13.30;;;23.50;99.90;;;;;;5072524;28;20467;-68
2021/06/10 08:01:42;;;;;;;15.13;13.80;;;23.50;99.90;;;;;;5069880;28;20454;-68
2021/06/10 08:04:10;;;;;;;13.87;12.67;;;23.70;99.90;;;;;;5072432;28;20957;-65
2021/06/10 08:06:36;;;;;;;15.07;13.77;;;23.90;99.90;;;;;;5072676;28;20534;-67
2021/06/10 08:09:03;;;;;;;14.27;13.07;;;23.90;99.90;;;;;;5073126;28;20452;-67
2021/06/10 08:11:29;;;;;;;17.93;16.33;;;24.00;99.90;;;;;;5071603;28;20454;-66
2021/06/10 08:13:56;;;;;;;18.13;16.53;;;23.80;99.90;;;;;;5071822;28;20526;-66
2021/06/10 08:16:23;;;;;;;15.60;14.20;;;23.60;99.90;;;;;;5061770;28;20478;-67
2021/06/10 08:18:49;;;;;;;16.80;15.30;;;23.50;99.90;;;;;;5071010;28;20946;-66
2021/06/10 08:21:17;;;;;;;17.27;15.50;;;23.40;99.90;;;;;;5072229;28;20471;-66
2021/06/10 08:23:43;;;;;;;17.77;15.97;;;23.50;99.90;;;;;;5072611;28;21098;-66
2021/06/10 08:26:10;;;;;;;19.50;17.80;;;23.30;99.90;;;;;;5066119;28;20510;-66
2021/06/10 08:28:36;;;;;;;18.53;16.83;;;23.20;99.90;;;;;;5062064;28;20460;-67
2021/06/10 08:31:03;;;;;;;17.97;16.37;;;22.90;99.90;;;;;;5062030;28;20446;-66
2021/06/10 08:33:30;;;;;;;17.87;16.37;;;22.80;99.90;;;;;;5064566;28;20521;-68
2021/06/10 08:35:56;;;;;;;18.70;17.00;;;22.90;99.90;;;;;;5063676;28;21047;-67
2021/06/10 08:38:24;;;;;;;16.83;15.33;;;22.90;99.90;;;;;;5073397;28;20435;-68
2021/06/10 08:40:51;;;;;;;17.67;16.07;;;23.10;99.90;;;;;;5073813;28;20909;-66
2021/06/10 08:43:18;;;;;;;18.90;16.90;;;23.20;99.90;;;;;;5073188;28;20944;-66
2021/06/10 08:45:47;;;;;;;18.63;16.67;;;23.10;99.90;;;;;;5071860;28;20527;-67
2021/06/10 08:48:14;;;;;;;17.07;15.57;;;23.10;99.90;;;;;;5068907;28;20442;-66
2021/06/10 08:50:42;;;;;;;18.60;16.77;;;23.20;99.90;;;;;;5071333;28;20537;-66
2021/06/10 08:53:11;;;;;;;17.93;16.23;;;23.20;99.90;;;;;;5071445;28;20539;-67
2021/06/10 08:55:39;;;;;;;16.60;15.00;;;23.30;99.90;;;;;;5071644;28;20441;-66
2021/06/10 08:58:05;;;;;;;19.43;17.53;;;23.50;99.90;;;;;;5071638;28;20926;-68
2021/06/10 09:00:32;;;;;;;19.50;17.67;;;23.80;99.90;;;;;;5071361;28;20541;-67
2021/06/10 09:03:01;;;;;;;19.53;17.83;;;24.00;99.90;;;;;;5071219;28;20455;-68
2021/06/10 09:05:29;;;;;;;20.97;18.90;;;24.20;99.90;;;;;;5071470;28;20471;-66
2021/06/10 09:07:57;;;;;;;20.63;18.87;;;24.00;99.90;;;;;;5071132;28;20474;-65
2021/06/10 09:10:26;;;;;;;20.97;19.20;;;23.90;99.90;;;;;;5071341;28;20502;-67
2021/06/10 09:12:56;;;;;;;19.13;17.50;;;23.80;99.90;;;;;;5071384;28;20431;-67
2021/06/10 09:15:25;;;;;;;20.23;18.53;;;23.90;99.90;;;;;;5071436;28;20455;-67
2021/06/10 09:17:54;;;;;;;18.83;17.13;;;24.20;99.90;;;;;;5071005;28;20475;-67
2021/06/10 09:20:41;;;;;;;17.80;16.00;;;24.30;99.90;;;;;;5070836;28;20475;-67
2021/06/10 09:23:16;;;;;;;19.30;17.60;;;24.60;99.90;;;;;;5071394;28;20827;-67
2021/06/10 09:25:44;;;;;;;19.00;17.40;;;24.70;99.90;;;;;;5070597;28;20451;-67
2021/06/10 09:28:14;;;;;;;18.10;16.60;;;24.90;99.90;;;;;;5070524;28;20466;-67
2021/06/10 09:30:43;;;;;;;16.07;14.60;;;25.10;99.90;;;;;;5069798;28;20443;-67
2021/06/10 09:33:12;;;;;;;17.70;16.20;;;25.30;99.90;;;;;;5070244;28;20431;-68
2021/06/10 09:35:40;;;;;;;15.70;14.17;;;25.50;99.90;;;;;;5070424;28;21047;-66
2021/06/10 09:38:08;;;;;;;17.73;16.23;;;25.60;99.90;;;;;;5070428;28;20475;-66
2021/06/10 09:40:35;;;;;;;18.70;17.07;;;25.80;99.90;;;;;;5070122;28;20976;-67
2021/06/10 09:43:02;;;;;;;18.10;16.60;;;25.50;99.90;;;;;;5070679;28;20435;-66
2021/06/10 09:45:32;;;;;;;18.63;17.00;;;25.30;99.90;;;;;;5070647;28;21372;-67
2021/06/10 09:48:00;;;;;;;16.97;15.57;;;25.20;99.90;;;;;;5068829;28;20443;-67
2021/06/10 09:50:32;;;;;;;17.07;15.47;;;25.50;99.90;;;;;;5070643;28;20467;-67
2021/06/10 09:53:02;;;;;;;21.63;19.73;;;25.80;99.90;;;;;;5071499;28;20458;-67
2021/06/10 09:55:31;;;;;;;19.63;17.97;;;25.60;99.90;;;;;;5070800;28;20457;-67
2021/06/10 09:57:58;;;;;;;20.17;18.40;;;25.60;99.90;;;;;;5051519;28;20470;-67
2021/06/10 10:00:25;;;;;;;17.10;15.60;;;25.80;99.90;;;;;;5069458;28;20451;-68
2021/06/10 10:02:54;;;;;;;16.70;15.33;;;26.30;99.90;;;;;;5070571;28;20447;-67
2021/06/10 10:05:22;;;;;;;15.00;13.80;;;26.80;99.90;;;;;;5070086;28;20857;-67
2021/06/10 10:07:49;;;;;;;15.50;14.30;;;27.40;99.90;;;;;;5070353;28;20450;-67
2021/06/10 10:10:16;;;;;;;13.57;12.47;;;27.70;99.90;;;;;;5064361;28;20498;-67
2021/06/10 10:12:44;;;;;;;15.40;14.03;;;28.30;99.90;;;;;;5067856;28;20485;-67
2021/06/10 10:15:12;;;;;;;14.60;13.50;;;28.70;99.90;;;;;;5076403;28;20537;-67
2021/06/10 10:17:39;;;;;;;16.67;15.37;;;29.10;99.90;;;;;;5086039;28;20794;-67
2021/06/10 10:20:09;;;;;;;16.00;14.73;;;29.00;99.90;;;;;;5085708;28;20461;-65
2021/06/10 10:22:36;;;;;;;15.90;14.50;;;28.80;99.90;;;;;;5086176;28;21170;-65
2021/06/10 10:25:04;;;;;;;15.57;14.37;;;29.00;99.90;;;;;;5086047;28;20446;-64
2021/06/10 10:27:30;;;;;;;19.57;18.07;;;29.60;99.60;;;;;;5086191;28;20442;-65
2021/06/10 10:29:58;;;;;;;17.07;15.77;;;29.70;99.90;;;;;;5085593;28;20685;-65
2021/06/10 10:32:26;;;;;;;14.83;13.40;;;29.90;97.80;;;;;;5086283;28;20936;-64
2021/06/10 10:34:53;;;;;;;15.70;14.50;;;30.20;98.70;;;;;;5085508;28;20529;-65
2021/06/10 10:37:23;;;;;;;17.77;16.20;;;30.10;99.10;;;;;;5086191;28;21128;-65
2021/06/10 10:39:53;;;;;;;17.40;15.93;;;30.30;98.80;;;;;;5086074;28;20458;-64
2021/06/10 10:42:32;;;;;;;18.60;17.00;;;30.20;96.50;;;;;;5086160;28;20857;-65
2021/06/10 10:45:14;;;;;;;18.20;16.70;;;29.70;98.50;;;;;;5087600;28;20450;-64
2021/06/10 10:47:47;;;;;;;17.40;16.03;;;29.90;99.90;;;;;;5087435;28;20442;-67
2021/06/10 10:50:18;;;;;;;19.73;18.10;;;30.40;99.90;;;;;;5088616;28;20469;-67
2021/06/10 10:52:56;;;;;;;17.70;16.20;;;30.80;96.50;;;;;;5089503;28;20454;-64
2021/06/10 10:55:30;;;;;;;17.40;16.00;;;31.00;96.90;;;;;;5089635;28;20442;-64
2021/06/10 10:58:04;;;;;;;19.10;17.50;;;31.00;98.60;;;;;;5072444;28;20509;-65
2021/06/10 11:00:56;;;;;;;18.03;16.63;;;31.10;96.20;;;;;;5057137;28;20490;-65
2021/06/10 11:03:28;;;;;;;21.57;19.83;;;31.40;95.50;;;;;;5036249;28;20447;-65
2021/06/10 11:05:55;;;;;;;19.17;17.67;;;31.70;95.00;;;;;;5062478;28;20944;-65
2021/06/10 11:08:24;;;;;;;19.70;18.20;;;31.50;96.40;;;;;;5064789;28;20520;-70
2021/06/10 11:11:01;;;;;;;21.20;19.50;;;30.90;96.60;;;;;;5064893;28;20442;-70
2021/06/10 11:13:28;;;;;;;21.03;19.30;;;31.20;95.00;;;;;;5065237;28;20487;-68
2021/06/10 11:15:58;;;;;;;17.23;15.77;;;31.00;95.60;;;;;;5065365;28;20424;-66
2021/06/10 11:18:59;;;;;;;20.40;18.90;;;31.20;92.50;;;;;;5064635;28;20479;-68
2021/06/10 11:21:49;;;;;;;18.60;17.17;;;31.50;93.20;;;;;;5063140;28;20441;-65
2021/06/10 11:24:22;;;;;;;18.20;16.60;;;30.90;93.60;;;;;;5063508;28;20546;-65
2021/06/10 11:26:59;;;;;;;19.20;17.70;;;31.30;93.90;;;;;;5065606;28;20449;-65
2021/06/10 11:29:25;;;;;;;19.33;17.80;;;31.60;92.90;;;;;;5066701;28;20455;-65
2021/06/10 11:32:26;;;;;;;15.30;14.20;;;31.50;92.90;;;;;;5069371;28;20912;-65
2021/06/10 11:34:55;;;;;;;16.50;15.30;;;31.70;92.90;;;;;;5077910;28;20434;-66
2021/06/10 11:37:23;;;;;;;18.30;16.80;;;32.30;91.40;;;;;;5078715;28;21024;-64
2021/06/10 11:39:51;;;;;;;18.97;17.50;;;31.90;90.00;;;;;;5068029;28;20469;-65
2021/06/10 11:42:18;;;;;;;19.73;18.07;;;31.10;91.60;;;;;;5067334;28;20435;-66
2021/06/10 11:44:46;;;;;;;18.27;16.83;;;30.60;91.90;;;;;;5068635;28;20438;-65
2021/06/10 11:47:27;;;;;;;17.57;16.27;;;30.00;96.60;;;;;;5065688;28;20459;-65
2021/06/10 11:49:55;;;;;;;17.27;15.90;;;30.30;95.40;;;;;;5061689;28;20881;-65
2021/06/10 11:52:22;;;;;;;17.50;16.30;;;31.40;93.80;;;;;;5069820;28;20528;-67
2021/06/10 11:55:08;;;;;;;16.57;15.27;;;32.30;91.00;;;;;;5068245;28;20451;-66
2021/06/10 11:57:34;;;;;;;15.60;14.47;;;33.20;90.50;;;;;;5063512;28;20570;-66
2021/06/10 12:00:09;;;;;;;14.03;13.03;;;33.70;88.70;;;;;;5070614;28;20538;-66
2021/06/10 12:02:37;;;;;;;14.30;13.20;;;34.60;84.30;;;;;;5069440;28;20438;-66
2021/06/10 12:05:09;;;;;;;16.20;14.90;;;34.10;82.20;;;;;;5071358;28;20446;-67
2021/06/10 12:07:36;;;;;;;14.77;13.50;;;33.50;81.30;;;;;;5071811;28;20449;-67
2021/06/10 12:10:09;;;;;;;17.30;16.10;;;33.10;84.80;;;;;;5071299;28;20463;-67
2021/06/10 12:12:40;;;;;;;15.43;14.23;;;33.50;81.60;;;;;;5071700;28;20443;-66
2021/06/10 12:15:09;;;;;;;15.80;14.60;;;33.10;85.90;;;;;;5071496;28;20434;-66
2021/06/10 12:17:52;;;;;;;14.30;13.10;;;33.10;89.40;;;;;;5071509;28;20475;-66
2021/06/10 12:20:20;;;;;;;14.90;13.80;;;34.00;91.00;;;;;;5071121;28;20463;-66
2021/06/10 12:22:47;;;;;;;15.00;13.90;;;35.00;83.10;;;;;;5071041;28;20880;-67
2021/06/10 12:25:24;;;;;;;15.90;14.50;;;34.80;75.90;;;;;;5070647;28;20613;-65
2021/06/10 12:27:52;;;;;;;14.93;13.77;;;33.30;85.20;;;;;;5053321;28;20443;-66
2021/06/10 12:30:38;;;;;;;14.83;13.67;;;32.00;82.40;;;;;;5066005;28;20561;-66
2021/06/10 12:33:16;;;;;;;13.20;12.10;;;30.50;87.90;;;;;;5063814;28;21033;-66
2021/06/10 12:35:44;;;;;;;12.97;12.03;;;30.30;88.80;;;;;;5070516;28;20984;-66